sensor_id;sensor_type;location;lat;lon;timestamp;temperature;humidity
56478;DHT22;42382;53.210;5.772;2023-04-19T00:01:24;8.50;77.90
56478;DHT22;42382;53.210;5.772;2023-04-19T00:03:49;8.40;78.20
56478;DHT22;42382;53.210;5.772;2023-04-19T00:06:15;8.40;78.30
56478;DHT22;42382;53.210;5.772;2023-04-19T00:08:42;8.40;78.50
56478;DHT22;42382;53.210;5.772;2023-04-19T00:11:08;8.30;78.90
56478;DHT22;42382;53.210;5.772;2023-04-19T00:13:34;8.30;78.90
56478;DHT22;42382;53.210;5.772;2023-04-19T00:16:00;8.30;79.00
56478;DHT22;42382;53.210;5.772;2023-04-19T00:18:25;8.20;79.20
56478;DHT22;42382;53.210;5.772;2023-04-19T00:20:51;8.20;79.20
56478;DHT22;42382;53.210;5.772;2023-04-19T00:23:17;8.20;79.00
56478;DHT22;42382;53.210;5.772;2023-04-19T00:25:44;8.10;79.40
56478;DHT22;42382;53.210;5.772;2023-04-19T00:28:09;8.10;79.10
56478;DHT22;42382;53.210;5.772;2023-04-19T00:30:35;8.10;79.30
56478;DHT22;42382;53.210;5.772;2023-04-19T00:33:01;8.10;79.40
56478;DHT22;42382;53.210;5.772;2023-04-19T00:35:26;8.10;79.50
56478;DHT22;42382;53.210;5.772;2023-04-19T00:37:52;8.10;79.60
56478;DHT22;42382;53.210;5.772;2023-04-19T00:40:17;8.10;79.60
56478;DHT22;42382;53.210;5.772;2023-04-19T00:42:43;8.10;79.60
56478;DHT22;42382;53.210;5.772;2023-04-19T00:45:09;8.10;79.60
56478;DHT22;42382;53.210;5.772;2023-04-19T00:47:35;8.10;79.80
56478;DHT22;42382;53.210;5.772;2023-04-19T00:50:03;8.00;79.70
56478;DHT22;42382;53.210;5.772;2023-04-19T00:52:29;8.00;79.60
56478;DHT22;42382;53.210;5.772;2023-04-19T00:54:54;7.90;79.70
56478;DHT22;42382;53.210;5.772;2023-04-19T00:57:22;8.00;79.80
56478;DHT22;42382;53.210;5.772;2023-04-19T00:59:49;7.90;80.00
56478;DHT22;42382;53.210;5.772;2023-04-19T01:02:15;7.90;80.10
56478;DHT22;42382;53.210;5.772;2023-04-19T01:04:41;7.90;80.20
56478;DHT22;42382;53.210;5.772;2023-04-19T01:07:07;7.90;80.40
56478;DHT22;42382;53.210;5.772;2023-04-19T01:09:33;7.80;80.40
56478;DHT22;42382;53.210;5.772;2023-04-19T01:12:00;7.80;80.60
56478;DHT22;42382;53.210;5.772;2023-04-19T01:14:26;7.80;80.70
56478;DHT22;42382;53.210;5.772;2023-04-19T01:16:51;7.70;80.50
56478;DHT22;42382;53.210;5.772;2023-04-19T01:19:18;7.70;80.80
56478;DHT22;42382;53.210;5.772;2023-04-19T01:21:46;7.60;80.60
56478;DHT22;42382;53.210;5.772;2023-04-19T01:24:12;7.70;80.50
56478;DHT22;42382;53.210;5.772;2023-04-19T01:26:37;7.70;80.30
56478;DHT22;42382;53.210;5.772;2023-04-19T01:29:03;7.70;80.20
56478;DHT22;42382;53.210;5.772;2023-04-19T01:31:28;7.70;80.10
56478;DHT22;42382;53.210;5.772;2023-04-19T01:33:54;7.70;80.00
56478;DHT22;42382;53.210;5.772;2023-04-19T01:36:20;7.70;79.90
56478;DHT22;42382;53.210;5.772;2023-04-19T01:38:45;7.70;79.90
56478;DHT22;42382;53.210;5.772;2023-04-19T01:41:12;7.70;79.80
56478;DHT22;42382;53.210;5.772;2023-04-19T01:43:38;7.60;79.90
56478;DHT22;42382;53.210;5.772;2023-04-19T01:46:03;7.60;79.90
56478;DHT22;42382;53.210;5.772;2023-04-19T01:48:29;7.60;79.90
56478;DHT22;42382;53.210;5.772;2023-04-19T01:50:55;7.50;80.40
56478;DHT22;42382;53.210;5.772;2023-04-19T01:53:20;7.50;80.70
56478;DHT22;42382;53.210;5.772;2023-04-19T01:55:46;7.50;80.90
56478;DHT22;42382;53.210;5.772;2023-04-19T01:58:11;7.40;81.00
56478;DHT22;42382;53.210;5.772;2023-04-19T02:00:37;7.40;81.30
56478;DHT22;42382;53.210;5.772;2023-04-19T02:03:03;7.40;81.70
56478;DHT22;42382;53.210;5.772;2023-04-19T02:05:28;7.40;81.80
56478;DHT22;42382;53.210;5.772;2023-04-19T02:07:54;7.40;82.20
56478;DHT22;42382;53.210;5.772;2023-04-19T02:10:20;7.40;82.20
56478;DHT22;42382;53.210;5.772;2023-04-19T02:12:45;7.40;82.10
56478;DHT22;42382;53.210;5.772;2023-04-19T02:15:11;7.40;82.20
56478;DHT22;42382;53.210;5.772;2023-04-19T02:17:36;7.40;82.60
56478;DHT22;42382;53.210;5.772;2023-04-19T02:20:04;7.30;82.70
56478;DHT22;42382;53.210;5.772;2023-04-19T02:22:30;7.30;82.50
56478;DHT22;42382;53.210;5.772;2023-04-19T02:24:55;7.30;82.40
56478;DHT22;42382;53.210;5.772;2023-04-19T02:27:21;7.30;82.40
56478;DHT22;42382;53.210;5.772;2023-04-19T02:29:46;7.30;82.80
56478;DHT22;42382;53.210;5.772;2023-04-19T02:32:12;7.30;82.60
56478;DHT22;42382;53.210;5.772;2023-04-19T02:34:37;7.30;83.00
56478;DHT22;42382;53.210;5.772;2023-04-19T02:37:03;7.30;83.00
56478;DHT22;42382;53.210;5.772;2023-04-19T02:39:28;7.30;82.70
56478;DHT22;42382;53.210;5.772;2023-04-19T02:41:54;7.30;82.80
56478;DHT22;42382;53.210;5.772;2023-04-19T02:44:20;7.30;82.60
56478;DHT22;42382;53.210;5.772;2023-04-19T02:46:48;7.30;82.60
56478;DHT22;42382;53.210;5.772;2023-04-19T02:49:14;7.30;82.70
56478;DHT22;42382;53.210;5.772;2023-04-19T02:51:40;7.20;82.50
56478;DHT22;42382;53.210;5.772;2023-04-19T02:54:05;7.20;82.20
56478;DHT22;42382;53.210;5.772;2023-04-19T02:56:31;7.20;82.20
56478;DHT22;42382;53.210;5.772;2023-04-19T02:58:59;7.20;82.10
56478;DHT22;42382;53.210;5.772;2023-04-19T03:01:25;7.20;82.00
56478;DHT22;42382;53.210;5.772;2023-04-19T03:03:50;7.10;82.00
56478;DHT22;42382;53.210;5.772;2023-04-19T03:06:16;7.10;81.90
56478;DHT22;42382;53.210;5.772;2023-04-19T03:08:41;7.10;81.80
56478;DHT22;42382;53.210;5.772;2023-04-19T03:11:07;7.10;81.70
56478;DHT22;42382;53.210;5.772;2023-04-19T03:13:33;7.00;81.50
56478;DHT22;42382;53.210;5.772;2023-04-19T03:15:58;7.00;81.40
56478;DHT22;42382;53.210;5.772;2023-04-19T03:18:24;6.90;81.40
56478;DHT22;42382;53.210;5.772;2023-04-19T03:20:49;6.90;81.20
56478;DHT22;42382;53.210;5.772;2023-04-19T03:23:15;6.90;81.00
56478;DHT22;42382;53.210;5.772;2023-04-19T03:25:40;6.90;81.00
56478;DHT22;42382;53.210;5.772;2023-04-19T03:28:06;6.90;80.70
56478;DHT22;42382;53.210;5.772;2023-04-19T03:30:31;6.80;80.50
56478;DHT22;42382;53.210;5.772;2023-04-19T03:32:57;6.80;80.30
56478;DHT22;42382;53.210;5.772;2023-04-19T03:35:24;6.80;80.20
56478;DHT22;42382;53.210;5.772;2023-04-19T03:37:50;6.80;80.10
56478;DHT22;42382;53.210;5.772;2023-04-19T03:40:16;6.80;80.00
56478;DHT22;42382;53.210;5.772;2023-04-19T03:42:41;6.70;79.80
56478;DHT22;42382;53.210;5.772;2023-04-19T03:45:07;6.70;79.50
56478;DHT22;42382;53.210;5.772;2023-04-19T03:47:33;6.70;79.50
56478;DHT22;42382;53.210;5.772;2023-04-19T03:49:58;6.70;79.20
56478;DHT22;42382;53.210;5.772;2023-04-19T03:52:24;6.60;79.20
56478;DHT22;42382;53.210;5.772;2023-04-19T03:54:50;6.60;79.10
56478;DHT22;42382;53.210;5.772;2023-04-19T03:57:15;6.60;79.20
56478;DHT22;42382;53.210;5.772;2023-04-19T03:59:41;6.60;79.10
56478;DHT22;42382;53.210;5.772;2023-04-19T04:02:07;6.50;79.00
56478;DHT22;42382;53.210;5.772;2023-04-19T04:04:32;6.50;79.00
56478;DHT22;42382;53.210;5.772;2023-04-19T04:06:58;6.50;79.00
56478;DHT22;42382;53.210;5.772;2023-04-19T04:09:23;6.40;79.00
56478;DHT22;42382;53.210;5.772;2023-04-19T04:11:49;6.40;78.90
56478;DHT22;42382;53.210;5.772;2023-04-19T04:14:14;6.40;78.80
56478;DHT22;42382;53.210;5.772;2023-04-19T04:16:40;6.40;78.70
56478;DHT22;42382;53.210;5.772;2023-04-19T04:19:05;6.30;78.70
56478;DHT22;42382;53.210;5.772;2023-04-19T04:21:31;6.30;78.60
56478;DHT22;42382;53.210;5.772;2023-04-19T04:23:57;6.30;78.60
56478;DHT22;42382;53.210;5.772;2023-04-19T04:26:23;6.20;78.60
56478;DHT22;42382;53.210;5.772;2023-04-19T04:28:49;6.20;78.50
56478;DHT22;42382;53.210;5.772;2023-04-19T04:31:15;6.20;78.30
56478;DHT22;42382;53.210;5.772;2023-04-19T04:33:42;6.10;78.40
56478;DHT22;42382;53.210;5.772;2023-04-19T04:36:08;6.10;78.20
56478;DHT22;42382;53.210;5.772;2023-04-19T04:38:36;6.10;78.40
56478;DHT22;42382;53.210;5.772;2023-04-19T04:41:01;6.00;77.90
56478;DHT22;42382;53.210;5.772;2023-04-19T04:43:27;6.00;78.10
56478;DHT22;42382;53.210;5.772;2023-04-19T04:45:54;6.00;78.10
56478;DHT22;42382;53.210;5.772;2023-04-19T04:48:21;6.00;78.20
56478;DHT22;42382;53.210;5.772;2023-04-19T04:50:47;6.00;78.20
56478;DHT22;42382;53.210;5.772;2023-04-19T04:53:12;6.00;77.70
56478;DHT22;42382;53.210;5.772;2023-04-19T04:55:38;5.90;77.90
56478;DHT22;42382;53.210;5.772;2023-04-19T04:58:03;5.90;77.80
56478;DHT22;42382;53.210;5.772;2023-04-19T05:00:32;5.90;77.90
56478;DHT22;42382;53.210;5.772;2023-04-19T05:02:58;5.90;77.80
56478;DHT22;42382;53.210;5.772;2023-04-19T05:05:24;5.90;77.70
56478;DHT22;42382;53.210;5.772;2023-04-19T05:07:50;5.90;77.90
56478;DHT22;42382;53.210;5.772;2023-04-19T05:10:15;5.90;77.60
56478;DHT22;42382;53.210;5.772;2023-04-19T05:12:41;5.90;77.40
56478;DHT22;42382;53.210;5.772;2023-04-19T05:15:07;5.90;77.40
56478;DHT22;42382;53.210;5.772;2023-04-19T05:17:33;5.90;77.30
56478;DHT22;42382;53.210;5.772;2023-04-19T05:19:58;5.90;76.90
56478;DHT22;42382;53.210;5.772;2023-04-19T05:22:25;5.90;77.00
56478;DHT22;42382;53.210;5.772;2023-04-19T05:24:50;6.00;77.10
56478;DHT22;42382;53.210;5.772;2023-04-19T05:27:16;6.00;77.00
56478;DHT22;42382;53.210;5.772;2023-04-19T05:29:42;6.00;76.70
56478;DHT22;42382;53.210;5.772;2023-04-19T05:32:07;6.00;75.90
56478;DHT22;42382;53.210;5.772;2023-04-19T05:34:34;6.10;76.50
56478;DHT22;42382;53.210;5.772;2023-04-19T05:37:01;6.10;76.10
56478;DHT22;42382;53.210;5.772;2023-04-19T05:39:27;6.10;76.00
56478;DHT22;42382;53.210;5.772;2023-04-19T05:41:53;6.10;75.30
56478;DHT22;42382;53.210;5.772;2023-04-19T05:44:18;6.20;75.70
56478;DHT22;42382;53.210;5.772;2023-04-19T05:46:44;6.20;75.10
56478;DHT22;42382;53.210;5.772;2023-04-19T05:49:10;6.20;74.50
56478;DHT22;42382;53.210;5.772;2023-04-19T05:51:35;6.20;74.90
56478;DHT22;42382;53.210;5.772;2023-04-19T05:54:01;6.30;74.90
56478;DHT22;42382;53.210;5.772;2023-04-19T05:56:28;6.30;74.50
56478;DHT22;42382;53.210;5.772;2023-04-19T05:58:54;6.40;74.60
56478;DHT22;42382;53.210;5.772;2023-04-19T06:01:24;6.40;74.20
56478;DHT22;42382;53.210;5.772;2023-04-19T06:03:49;6.50;74.30
56478;DHT22;42382;53.210;5.772;2023-04-19T06:06:18;6.50;74.10
56478;DHT22;42382;53.210;5.772;2023-04-19T06:08:43;6.60;73.90
56478;DHT22;42382;53.210;5.772;2023-04-19T06:11:09;6.70;74.40
56478;DHT22;42382;53.210;5.772;2023-04-19T06:13:35;6.70;72.70
56478;DHT22;42382;53.210;5.772;2023-04-19T06:16:01;6.80;72.10
56478;DHT22;42382;53.210;5.772;2023-04-19T06:18:27;6.80;72.30
56478;DHT22;42382;53.210;5.772;2023-04-19T06:20:52;6.90;71.10
56478;DHT22;42382;53.210;5.772;2023-04-19T06:23:18;7.00;70.80
56478;DHT22;42382;53.210;5.772;2023-04-19T06:25:43;7.00;71.20
56478;DHT22;42382;53.210;5.772;2023-04-19T06:28:09;7.00;70.00
56478;DHT22;42382;53.210;5.772;2023-04-19T06:30:35;7.10;70.80
56478;DHT22;42382;53.210;5.772;2023-04-19T06:33:00;7.20;70.00
56478;DHT22;42382;53.210;5.772;2023-04-19T06:35:26;7.20;68.70
56478;DHT22;42382;53.210;5.772;2023-04-19T06:37:51;7.20;68.30
56478;DHT22;42382;53.210;5.772;2023-04-19T06:40:17;7.20;69.70
56478;DHT22;42382;53.210;5.772;2023-04-19T06:42:42;7.30;68.00
56478;DHT22;42382;53.210;5.772;2023-04-19T06:45:08;7.30;68.30
56478;DHT22;42382;53.210;5.772;2023-04-19T06:47:34;7.40;67.30
56478;DHT22;42382;53.210;5.772;2023-04-19T06:50:00;7.40;68.10
56478;DHT22;42382;53.210;5.772;2023-04-19T06:52:25;7.40;68.10
56478;DHT22;42382;53.210;5.772;2023-04-19T06:54:51;7.50;67.50
56478;DHT22;42382;53.210;5.772;2023-04-19T06:57:16;7.50;68.10
56478;DHT22;42382;53.210;5.772;2023-04-19T06:59:42;7.50;66.40
56478;DHT22;42382;53.210;5.772;2023-04-19T07:02:08;7.50;66.60
56478;DHT22;42382;53.210;5.772;2023-04-19T07:04:33;7.60;66.50
56478;DHT22;42382;53.210;5.772;2023-04-19T07:06:59;7.60;67.20
56478;DHT22;42382;53.210;5.772;2023-04-19T07:09:25;7.70;67.60
56478;DHT22;42382;53.210;5.772;2023-04-19T07:11:50;7.80;66.70
56478;DHT22;42382;53.210;5.772;2023-04-19T07:14:16;7.80;64.80
56478;DHT22;42382;53.210;5.772;2023-04-19T07:16:43;7.80;66.00
56478;DHT22;42382;53.210;5.772;2023-04-19T07:19:09;7.90;66.30
56478;DHT22;42382;53.210;5.772;2023-04-19T07:21:35;7.90;64.40
56478;DHT22;42382;53.210;5.772;2023-04-19T07:24:02;8.00;65.30
56478;DHT22;42382;53.210;5.772;2023-04-19T07:26:28;8.00;65.00
56478;DHT22;42382;53.210;5.772;2023-04-19T07:28:53;8.10;64.90
56478;DHT22;42382;53.210;5.772;2023-04-19T07:31:20;8.10;64.50
56478;DHT22;42382;53.210;5.772;2023-04-19T07:33:45;8.20;64.60
56478;DHT22;42382;53.210;5.772;2023-04-19T07:36:11;8.20;64.30
56478;DHT22;42382;53.210;5.772;2023-04-19T07:38:36;8.30;63.70
56478;DHT22;42382;53.210;5.772;2023-04-19T07:41:02;8.30;62.30
56478;DHT22;42382;53.210;5.772;2023-04-19T07:43:29;8.40;63.90
56478;DHT22;42382;53.210;5.772;2023-04-19T07:45:55;8.40;61.00
56478;DHT22;42382;53.210;5.772;2023-04-19T07:48:20;8.60;62.10
56478;DHT22;42382;53.210;5.772;2023-04-19T07:50:46;9.60;62.70
56478;DHT22;42382;53.210;5.772;2023-04-19T07:53:11;10.80;56.10
56478;DHT22;42382;53.210;5.772;2023-04-19T07:55:37;11.90;52.00
56478;DHT22;42382;53.210;5.772;2023-04-19T07:58:03;12.80;50.90
56478;DHT22;42382;53.210;5.772;2023-04-19T08:00:29;13.60;50.50
56478;DHT22;42382;53.210;5.772;2023-04-19T08:02:55;14.30;47.60
56478;DHT22;42382;53.210;5.772;2023-04-19T08:05:21;14.70;46.10
56478;DHT22;42382;53.210;5.772;2023-04-19T08:07:47;15.20;45.50
56478;DHT22;42382;53.210;5.772;2023-04-19T08:10:13;15.50;44.70
56478;DHT22;42382;53.210;5.772;2023-04-19T08:12:39;15.90;43.40
56478;DHT22;42382;53.210;5.772;2023-04-19T08:15:06;16.10;42.30
56478;DHT22;42382;53.210;5.772;2023-04-19T08:17:33;16.30;42.10
56478;DHT22;42382;53.210;5.772;2023-04-19T08:19:58;16.60;40.40
56478;DHT22;42382;53.210;5.772;2023-04-19T08:22:24;16.90;40.80
56478;DHT22;42382;53.210;5.772;2023-04-19T08:24:51;17.00;39.90
56478;DHT22;42382;53.210;5.772;2023-04-19T08:27:16;17.20;38.00
56478;DHT22;42382;53.210;5.772;2023-04-19T08:29:43;17.40;38.30
56478;DHT22;42382;53.210;5.772;2023-04-19T08:32:08;17.50;38.60
56478;DHT22;42382;53.210;5.772;2023-04-19T08:34:38;17.70;38.30
56478;DHT22;42382;53.210;5.772;2023-04-19T08:37:04;17.90;37.90
56478;DHT22;42382;53.210;5.772;2023-04-19T08:39:32;17.90;36.80
56478;DHT22;42382;53.210;5.772;2023-04-19T08:42:05;18.00;35.80
56478;DHT22;42382;53.210;5.772;2023-04-19T08:44:32;18.20;35.70
56478;DHT22;42382;53.210;5.772;2023-04-19T08:46:59;18.40;34.40
56478;DHT22;42382;53.210;5.772;2023-04-19T08:49:27;18.60;34.80
56478;DHT22;42382;53.210;5.772;2023-04-19T08:51:54;18.70;34.30
56478;DHT22;42382;53.210;5.772;2023-04-19T08:56:46;19.00;33.80
56478;DHT22;42382;53.210;5.772;2023-04-19T08:59:12;18.90;34.20
56478;DHT22;42382;53.210;5.772;2023-04-19T09:01:39;18.90;34.30
56478;DHT22;42382;53.210;5.772;2023-04-19T09:04:05;18.90;34.40
56478;DHT22;42382;53.210;5.772;2023-04-19T09:06:36;18.80;34.30
56478;DHT22;42382;53.210;5.772;2023-04-19T09:09:21;18.60;34.50
56478;DHT22;42382;53.210;5.772;2023-04-19T09:11:48;18.60;33.20
56478;DHT22;42382;53.210;5.772;2023-04-19T09:14:15;18.70;34.80
56478;DHT22;42382;53.210;5.772;2023-04-19T09:16:42;18.80;34.20
56478;DHT22;42382;53.210;5.772;2023-04-19T09:19:07;18.90;34.70
56478;DHT22;42382;53.210;5.772;2023-04-19T09:21:34;18.80;33.80
56478;DHT22;42382;53.210;5.772;2023-04-19T09:24:00;18.80;34.20
56478;DHT22;42382;53.210;5.772;2023-04-19T09:26:26;18.80;34.40
56478;DHT22;42382;53.210;5.772;2023-04-19T09:29:01;18.80;33.70
56478;DHT22;42382;53.210;5.772;2023-04-19T09:31:36;18.80;33.50
56478;DHT22;42382;53.210;5.772;2023-04-19T09:34:17;18.60;34.10
56478;DHT22;42382;53.210;5.772;2023-04-19T09:36:44;18.60;32.80
56478;DHT22;42382;53.210;5.772;2023-04-19T09:39:10;18.40;34.00
56478;DHT22;42382;53.210;5.772;2023-04-19T09:41:52;18.10;33.80
56478;DHT22;42382;53.210;5.772;2023-04-19T09:44:18;18.00;33.80
56478;DHT22;42382;53.210;5.772;2023-04-19T09:46:44;17.90;35.20
56478;DHT22;42382;53.210;5.772;2023-04-19T09:49:23;18.00;35.40
56478;DHT22;42382;53.210;5.772;2023-04-19T09:52:04;18.00;34.60
56478;DHT22;42382;53.210;5.772;2023-04-19T09:54:30;18.10;34.20
56478;DHT22;42382;53.210;5.772;2023-04-19T09:56:57;18.20;34.20
56478;DHT22;42382;53.210;5.772;2023-04-19T09:59:22;18.30;34.90
56478;DHT22;42382;53.210;5.772;2023-04-19T10:01:54;18.30;34.10
56478;DHT22;42382;53.210;5.772;2023-04-19T10:04:23;18.20;34.10
56478;DHT22;42382;53.210;5.772;2023-04-19T10:06:53;18.20;35.20
56478;DHT22;42382;53.210;5.772;2023-04-19T10:09:22;18.10;35.60
56478;DHT22;42382;53.210;5.772;2023-04-19T10:11:52;18.40;35.80
56478;DHT22;42382;53.210;5.772;2023-04-19T10:14:21;18.50;36.90
56478;DHT22;42382;53.210;5.772;2023-04-19T10:16:49;18.30;37.40
56478;DHT22;42382;53.210;5.772;2023-04-19T10:19:17;18.00;38.30
56478;DHT22;42382;53.210;5.772;2023-04-19T10:21:43;17.90;39.90
56478;DHT22;42382;53.210;5.772;2023-04-19T10:24:13;18.10;40.50
56478;DHT22;42382;53.210;5.772;2023-04-19T10:30:00;17.90;39.70
56478;DHT22;42382;53.210;5.772;2023-04-19T10:32:41;17.80;38.30
56478;DHT22;42382;53.210;5.772;2023-04-19T10:35:36;17.90;39.40
56478;DHT22;42382;53.210;5.772;2023-04-19T10:38:13;18.00;40.00
56478;DHT22;42382;53.210;5.772;2023-04-19T10:41:00;18.30;39.70
56478;DHT22;42382;53.210;5.772;2023-04-19T10:43:33;18.40;38.70
56478;DHT22;42382;53.210;5.772;2023-04-19T10:48:32;18.10;39.40
56478;DHT22;42382;53.210;5.772;2023-04-19T10:51:01;18.00;38.00
56478;DHT22;42382;53.210;5.772;2023-04-19T10:56:13;17.90;39.00
56478;DHT22;42382;53.210;5.772;2023-04-19T11:01:57;17.80;40.10
56478;DHT22;42382;53.210;5.772;2023-04-19T11:07:04;18.10;38.50
56478;DHT22;42382;53.210;5.772;2023-04-19T11:09:37;18.10;38.80
56478;DHT22;42382;53.210;5.772;2023-04-19T11:12:09;17.90;38.10
56478;DHT22;42382;53.210;5.772;2023-04-19T11:14:56;18.00;38.30
56478;DHT22;42382;53.210;5.772;2023-04-19T11:17:27;18.10;37.60
56478;DHT22;42382;53.210;5.772;2023-04-19T11:19:57;18.30;37.40
56478;DHT22;42382;53.210;5.772;2023-04-19T11:25:11;18.00;38.50
56478;DHT22;42382;53.210;5.772;2023-04-19T11:27:38;18.00;38.70
56478;DHT22;42382;53.210;5.772;2023-04-19T11:30:09;17.90;38.40
56478;DHT22;42382;53.210;5.772;2023-04-19T11:32:36;17.90;38.30
56478;DHT22;42382;53.210;5.772;2023-04-19T11:35:06;18.00;39.10
56478;DHT22;42382;53.210;5.772;2023-04-19T11:37:36;17.80;38.10
56478;DHT22;42382;53.210;5.772;2023-04-19T11:40:02;17.60;36.50
56478;DHT22;42382;53.210;5.772;2023-04-19T11:42:29;17.40;37.80
56478;DHT22;42382;53.210;5.772;2023-04-19T11:44:55;17.10;38.10
56478;DHT22;42382;53.210;5.772;2023-04-19T11:47:23;17.00;38.40
56478;DHT22;42382;53.210;5.772;2023-04-19T11:49:48;16.90;37.40
56478;DHT22;42382;53.210;5.772;2023-04-19T11:52:21;16.70;39.10
56478;DHT22;42382;53.210;5.772;2023-04-19T11:54:47;16.50;39.00
56478;DHT22;42382;53.210;5.772;2023-04-19T11:57:12;16.40;38.80
56478;DHT22;42382;53.210;5.772;2023-04-19T11:59:38;16.20;38.80
56478;DHT22;42382;53.210;5.772;2023-04-19T12:02:24;16.00;39.10
56478;DHT22;42382;53.210;5.772;2023-04-19T12:04:50;15.80;38.20
56478;DHT22;42382;53.210;5.772;2023-04-19T12:07:16;15.70;39.50
56478;DHT22;42382;53.210;5.772;2023-04-19T12:09:42;15.60;40.40
56478;DHT22;42382;53.210;5.772;2023-04-19T12:12:07;15.60;40.40
56478;DHT22;42382;53.210;5.772;2023-04-19T12:14:33;15.40;40.90
56478;DHT22;42382;53.210;5.772;2023-04-19T12:17:09;15.50;41.50
56478;DHT22;42382;53.210;5.772;2023-04-19T12:19:36;15.50;42.80
56478;DHT22;42382;53.210;5.772;2023-04-19T12:22:13;15.40;41.70
56478;DHT22;42382;53.210;5.772;2023-04-19T12:24:40;15.40;41.80
56478;DHT22;42382;53.210;5.772;2023-04-19T12:27:06;15.20;43.20
56478;DHT22;42382;53.210;5.772;2023-04-19T12:29:32;15.10;43.60
56478;DHT22;42382;53.210;5.772;2023-04-19T12:31:59;15.10;43.60
56478;DHT22;42382;53.210;5.772;2023-04-19T12:34:25;15.00;44.80
56478;DHT22;42382;53.210;5.772;2023-04-19T12:36:51;15.00;46.30
56478;DHT22;42382;53.210;5.772;2023-04-19T12:39:16;15.00;45.70
56478;DHT22;42382;53.210;5.772;2023-04-19T12:41:42;14.90;44.90
56478;DHT22;42382;53.210;5.772;2023-04-19T12:44:08;14.90;46.20
56478;DHT22;42382;53.210;5.772;2023-04-19T12:46:33;14.80;45.20
56478;DHT22;42382;53.210;5.772;2023-04-19T12:49:00;14.60;46.60
56478;DHT22;42382;53.210;5.772;2023-04-19T12:51:25;14.50;46.80
56478;DHT22;42382;53.210;5.772;2023-04-19T12:53:53;14.60;49.40
56478;DHT22;42382;53.210;5.772;2023-04-19T12:56:18;14.60;48.70
56478;DHT22;42382;53.210;5.772;2023-04-19T12:58:44;14.50;48.80
56478;DHT22;42382;53.210;5.772;2023-04-19T13:01:10;14.40;49.50
56478;DHT22;42382;53.210;5.772;2023-04-19T13:03:36;14.40;50.20
56478;DHT22;42382;53.210;5.772;2023-04-19T13:06:02;14.50;50.30
56478;DHT22;42382;53.210;5.772;2023-04-19T13:08:28;14.40;49.60
56478;DHT22;42382;53.210;5.772;2023-04-19T13:10:56;14.40;50.10
56478;DHT22;42382;53.210;5.772;2023-04-19T13:13:24;14.40;49.80
56478;DHT22;42382;53.210;5.772;2023-04-19T13:15:50;14.20;49.10
56478;DHT22;42382;53.210;5.772;2023-04-19T13:18:16;14.30;49.90
56478;DHT22;42382;53.210;5.772;2023-04-19T13:20:42;14.30;48.80
56478;DHT22;42382;53.210;5.772;2023-04-19T13:23:07;14.30;49.00
56478;DHT22;42382;53.210;5.772;2023-04-19T13:25:33;14.30;48.00
56478;DHT22;42382;53.210;5.772;2023-04-19T13:27:58;14.30;47.80
56478;DHT22;42382;53.210;5.772;2023-04-19T13:30:24;14.30;48.70
56478;DHT22;42382;53.210;5.772;2023-04-19T13:32:50;14.30;47.70
56478;DHT22;42382;53.210;5.772;2023-04-19T13:35:15;14.40;47.70
56478;DHT22;42382;53.210;5.772;2023-04-19T13:37:41;14.30;46.60
56478;DHT22;42382;53.210;5.772;2023-04-19T13:40:09;14.40;46.70
56478;DHT22;42382;53.210;5.772;2023-04-19T13:42:35;14.30;45.50
56478;DHT22;42382;53.210;5.772;2023-04-19T13:45:01;14.30;46.80
56478;DHT22;42382;53.210;5.772;2023-04-19T13:47:26;14.30;46.80
56478;DHT22;42382;53.210;5.772;2023-04-19T13:49:52;14.40;47.30
56478;DHT22;42382;53.210;5.772;2023-04-19T13:52:18;14.40;47.80
56478;DHT22;42382;53.210;5.772;2023-04-19T13:54:44;14.50;48.50
56478;DHT22;42382;53.210;5.772;2023-04-19T13:57:10;14.50;46.10
56478;DHT22;42382;53.210;5.772;2023-04-19T13:59:38;14.50;47.60
56478;DHT22;42382;53.210;5.772;2023-04-19T14:02:03;14.60;47.00
56478;DHT22;42382;53.210;5.772;2023-04-19T14:04:29;14.60;46.80
56478;DHT22;42382;53.210;5.772;2023-04-19T14:06:55;14.70;48.40
56478;DHT22;42382;53.210;5.772;2023-04-19T14:09:21;14.80;48.00
56478;DHT22;42382;53.210;5.772;2023-04-19T14:11:46;14.90;47.60
56478;DHT22;42382;53.210;5.772;2023-04-19T14:14:13;14.80;48.70
56478;DHT22;42382;53.210;5.772;2023-04-19T14:16:39;14.90;47.50
56478;DHT22;42382;53.210;5.772;2023-04-19T14:19:04;14.80;47.30
56478;DHT22;42382;53.210;5.772;2023-04-19T14:21:30;14.70;48.20
56478;DHT22;42382;53.210;5.772;2023-04-19T14:23:56;14.70;48.00
56478;DHT22;42382;53.210;5.772;2023-04-19T14:26:22;14.70;48.20
56478;DHT22;42382;53.210;5.772;2023-04-19T14:28:47;14.60;48.00
56478;DHT22;42382;53.210;5.772;2023-04-19T14:31:13;14.50;47.20
56478;DHT22;42382;53.210;5.772;2023-04-19T14:33:39;14.50;48.90
56478;DHT22;42382;53.210;5.772;2023-04-19T14:36:04;14.60;49.80
56478;DHT22;42382;53.210;5.772;2023-04-19T14:38:30;14.50;50.10
56478;DHT22;42382;53.210;5.772;2023-04-19T14:40:56;14.50;50.20
56478;DHT22;42382;53.210;5.772;2023-04-19T14:43:22;14.50;50.50
56478;DHT22;42382;53.210;5.772;2023-04-19T14:45:48;14.40;50.20
56478;DHT22;42382;53.210;5.772;2023-04-19T14:48:14;14.30;50.50
56478;DHT22;42382;53.210;5.772;2023-04-19T14:50:39;14.30;49.70
56478;DHT22;42382;53.210;5.772;2023-04-19T14:53:05;14.30;50.20
56478;DHT22;42382;53.210;5.772;2023-04-19T14:55:30;14.30;49.80
56478;DHT22;42382;53.210;5.772;2023-04-19T14:57:56;14.20;50.00
56478;DHT22;42382;53.210;5.772;2023-04-19T15:00:22;14.10;49.50
56478;DHT22;42382;53.210;5.772;2023-04-19T15:02:47;14.00;50.70
56478;DHT22;42382;53.210;5.772;2023-04-19T15:05:13;14.10;51.10
56478;DHT22;42382;53.210;5.772;2023-04-19T15:07:39;14.10;50.70
56478;DHT22;42382;53.210;5.772;2023-04-19T15:10:06;14.10;51.10
56478;DHT22;42382;53.210;5.772;2023-04-19T15:12:31;14.10;51.30
56478;DHT22;42382;53.210;5.772;2023-04-19T15:14:57;14.10;50.40
56478;DHT22;42382;53.210;5.772;2023-04-19T15:17:23;14.20;49.70
56478;DHT22;42382;53.210;5.772;2023-04-19T15:19:48;14.10;49.60
56478;DHT22;42382;53.210;5.772;2023-04-19T15:22:14;14.10;47.70
56478;DHT22;42382;53.210;5.772;2023-04-19T15:24:39;14.00;48.00
56478;DHT22;42382;53.210;5.772;2023-04-19T15:27:05;13.90;47.40
56478;DHT22;42382;53.210;5.772;2023-04-19T15:29:31;13.80;46.90
56478;DHT22;42382;53.210;5.772;2023-04-19T15:31:56;13.60;48.00
56478;DHT22;42382;53.210;5.772;2023-04-19T15:34:22;13.70;48.80
56478;DHT22;42382;53.210;5.772;2023-04-19T15:36:49;13.60;49.40
56478;DHT22;42382;53.210;5.772;2023-04-19T15:39:15;13.70;49.10
56478;DHT22;42382;53.210;5.772;2023-04-19T15:41:40;13.70;46.70
56478;DHT22;42382;53.210;5.772;2023-04-19T15:44:06;13.70;47.20
56478;DHT22;42382;53.210;5.772;2023-04-19T15:46:31;13.70;46.00
56478;DHT22;42382;53.210;5.772;2023-04-19T15:48:57;13.60;47.60
56478;DHT22;42382;53.210;5.772;2023-04-19T15:51:23;13.50;46.40
56478;DHT22;42382;53.210;5.772;2023-04-19T15:53:48;13.50;45.70